PWSweather.com
Personal Weather Stations
Station Observations
WATERF01
WaterfordIE

WaterfordIE

Lat: 52.2412507, Lon: -7.1414691

Elevation: 65

Station Type: Davis Vantage Vue

www.waterfordweather.com

High Low Average
Temperature 46.9°F8.3°C 31.7°F-0.2°C 39.9°F4.4°C
Dew Point 46.1°F7.8°C 30.7°F-0.7°C 38.4°F3.6°C
Winds 11.5 mph 18.5 kmh Calm Calm 3.0 mph WSW4.8 kmh WSW
Wind Gusts 20.7 mph33.3 kmh -- 6.0 mph9.7 kmh
Humidity 97% 90% 94%
Pressure 29.77 in1008.1 mb 29.59 in1002.0 mb -
Precipitation 0.09 in2.3 mm - -
Hour Temp Dew Point Humidity Winds Wind Gusts Pressure Precip Precip Rate Daily Precip Total
12:00 AM 35.7°F2.1°C 34.2°F1.2°C 94% Calm Calm -- 29.68 in1005.1 mb - 0.00 in0.0 mm 0.00 in0.0 mm
12:10 AM 35.4°F1.9°C 33.9°F1.1°C 94% 1.2 mph NW1.9 kmh NW 1.2 mph1.9 kmh 29.68 in1005.1 mb - 0.00 in0.0 mm 0.00 in0.0 mm
12:20 AM 35.5°F1.9°C 33.9°F1.1°C 94% 2.3 mph NW3.7 kmh NW 2.3 mph3.7 kmh 29.69 in1005.4 mb - 0.00 in0.0 mm 0.00 in0.0 mm
12:30 AM 35.5°F1.9°C 33.9°F1.1°C 94% 3.5 mph NW5.6 kmh NW 5.8 mph9.3 kmh 29.70 in1005.8 mb - 0.00 in0.0 mm 0.00 in0.0 mm
12:40 AM 35.6°F2.0°C 34.0°F1.1°C 94% 2.3 mph W3.7 kmh W 2.3 mph3.7 kmh 29.70 in1005.8 mb - 0.00 in0.0 mm 0.00 in0.0 mm
12:50 AM 35.5°F1.9°C 33.9°F1.1°C 94% 2.3 mph WNW3.7 kmh WNW 4.6 mph7.4 kmh 29.71 in1006.1 mb - 0.00 in0.0 mm 0.00 in0.0 mm
01:00 AM 35.4°F1.9°C 33.9°F1.1°C 94% 3.5 mph NW5.6 kmh NW 5.8 mph9.3 kmh 29.71 in1006.1 mb - 0.00 in0.0 mm 0.00 in0.0 mm
01:10 AM 35.7°F2.1°C 34.2°F1.2°C 94% 4.6 mph NW7.4 kmh NW 5.8 mph9.3 kmh 29.71 in1006.1 mb - 0.00 in0.0 mm 0.00 in0.0 mm
01:20 AM 36.3°F2.4°C 34.7°F1.5°C 94% 5.8 mph NW9.3 kmh NW 8.1 mph13.0 kmh 29.72 in1006.4 mb - 0.00 in0.0 mm 0.00 in0.0 mm
01:30 AM 36.4°F2.4°C 34.8°F1.6°C 94% 6.9 mph NW11.1 kmh NW 12.7 mph20.4 kmh 29.73 in1006.8 mb - 0.00 in0.0 mm 0.00 in0.0 mm
01:40 AM 36.4°F2.4°C 34.8°F1.6°C 94% 6.9 mph NW11.1 kmh NW 11.5 mph18.5 kmh 29.73 in1006.8 mb - 0.00 in0.0 mm 0.00 in0.0 mm
01:50 AM 36.5°F2.5°C 34.9°F1.6°C 94% 5.8 mph NNW9.3 kmh NNW 9.2 mph14.8 kmh 29.73 in1006.8 mb - 0.00 in0.0 mm 0.00 in0.0 mm
02:00 AM 36.5°F2.5°C 34.9°F1.6°C 94% 6.9 mph NW11.1 kmh NW 9.2 mph14.8 kmh 29.73 in1006.8 mb - 0.00 in0.0 mm 0.00 in0.0 mm
02:10 AM 36.7°F2.6°C 35.1°F1.7°C 94% 8.1 mph NW13.0 kmh NW 11.5 mph18.5 kmh 29.73 in1006.8 mb - 0.00 in0.0 mm 0.00 in0.0 mm
02:20 AM 36.8°F2.7°C 35.0°F1.7°C 93% 3.5 mph NW5.6 kmh NW 8.1 mph13.0 kmh 29.73 in1006.8 mb - 0.00 in0.0 mm 0.00 in0.0 mm
02:30 AM 36.7°F2.6°C 34.9°F1.6°C 93% 5.8 mph NW9.3 kmh NW 8.1 mph13.0 kmh 29.74 in1007.1 mb - 0.00 in0.0 mm 0.00 in0.0 mm
02:40 AM 36.6°F2.6°C 35.0°F1.7°C 94% 1.2 mph W1.9 kmh W 5.8 mph9.3 kmh 29.74 in1007.1 mb - 0.00 in0.0 mm 0.00 in0.0 mm
02:50 AM 36.1°F2.3°C 34.2°F1.2°C 93% Calm Calm -- 29.75 in1007.5 mb - 0.00 in0.0 mm 0.00 in0.0 mm
03:00 AM 34.9°F1.6°C 33.1°F0.6°C 93% Calm Calm -- 29.75 in1007.5 mb - 0.00 in0.0 mm 0.00 in0.0 mm
03:10 AM 34.3°F1.3°C 32.8°F0.4°C 94% Calm Calm -- 29.75 in1007.5 mb - 0.00 in0.0 mm 0.00 in0.0 mm
03:20 AM 33.9°F1.1°C 32.7°F0.4°C 95% Calm Calm -- 29.75 in1007.5 mb - 0.00 in0.0 mm 0.00 in0.0 mm
03:30 AM 33.8°F1.0°C 32.5°F0.3°C 95% Calm Calm -- 29.75 in1007.5 mb - 0.00 in0.0 mm 0.00 in0.0 mm
03:40 AM 34.4°F1.3°C 33.1°F0.6°C 95% 1.2 mph NW1.9 kmh NW 3.5 mph5.6 kmh 29.74 in1007.1 mb - 0.00 in0.0 mm 0.00 in0.0 mm
03:50 AM 35.0°F1.7°C 33.7°F0.9°C 95% 2.3 mph NW3.7 kmh NW 5.8 mph9.3 kmh 29.74 in1007.1 mb - 0.00 in0.0 mm 0.00 in0.0 mm
04:00 AM 35.9°F2.2°C 34.6°F1.4°C 95% Calm Calm 1.2 mph1.9 kmh 29.74 in1007.1 mb - 0.00 in0.0 mm 0.00 in0.0 mm
04:10 AM 34.4°F1.3°C 32.8°F0.4°C 94% Calm Calm -- 29.75 in1007.5 mb - 0.00 in0.0 mm 0.00 in0.0 mm
04:20 AM 33.6°F0.9°C 32.1°F0.1°C 94% Calm Calm -- 29.75 in1007.5 mb - 0.00 in0.0 mm 0.00 in0.0 mm
04:30 AM 33.4°F0.8°C 32.1°F0.1°C 95% Calm Calm -- 29.75 in1007.5 mb - 0.00 in0.0 mm 0.00 in0.0 mm
04:40 AM 33.7°F0.9°C 32.4°F0.2°C 95% Calm Calm -- 29.75 in1007.5 mb - 0.00 in0.0 mm 0.00 in0.0 mm
04:50 AM 33.7°F0.9°C 32.4°F0.2°C 95% Calm Calm -- 29.75 in1007.5 mb - 0.00 in0.0 mm 0.00 in0.0 mm
05:00 AM 33.4°F0.8°C 32.1°F0.1°C 95% Calm Calm -- 29.75 in1007.5 mb - 0.00 in0.0 mm 0.00 in0.0 mm
05:10 AM 32.8°F0.4°C 31.5°F-0.3°C 95% Calm Calm -- 29.75 in1007.5 mb - 0.00 in0.0 mm 0.00 in0.0 mm
05:20 AM 32.5°F0.3°C 31.2°F-0.4°C 95% Calm Calm -- 29.75 in1007.5 mb - 0.00 in0.0 mm 0.00 in0.0 mm
05:30 AM 32.6°F0.3°C 31.6°F-0.2°C 96% Calm Calm 2.3 mph3.7 kmh 29.75 in1007.5 mb - 0.00 in0.0 mm 0.00 in0.0 mm
05:40 AM 32.7°F0.4°C 31.7°F-0.2°C 96% Calm Calm -- 29.75 in1007.5 mb - 0.00 in0.0 mm 0.00 in0.0 mm
05:50 AM 33.2°F0.7°C 32.2°F0.1°C 96% Calm Calm -- 29.75 in1007.5 mb - 0.00 in0.0 mm 0.00 in0.0 mm
06:00 AM 32.4°F0.2°C 31.4°F-0.3°C 96% Calm Calm -- 29.75 in1007.5 mb - 0.00 in0.0 mm 0.00 in0.0 mm
06:10 AM 32.1°F0.1°C 31.0°F-0.6°C 96% Calm Calm -- 29.75 in1007.5 mb - 0.00 in0.0 mm 0.00 in0.0 mm
06:20 AM 32.1°F0.1°C 31.1°F-0.5°C 96% Calm Calm -- 29.76 in1007.8 mb - 0.00 in0.0 mm 0.00 in0.0 mm
06:30 AM 32.2°F0.1°C 31.2°F-0.4°C 96% Calm Calm -- 29.76 in1007.8 mb - 0.00 in0.0 mm 0.00 in0.0 mm
06:40 AM 32.5°F0.3°C 31.5°F-0.3°C 96% Calm Calm -- 29.76 in1007.8 mb - 0.00 in0.0 mm 0.00 in0.0 mm
06:50 AM 31.9°F-0.1°C 30.9°F-0.6°C 96% Calm Calm -- 29.77 in1008.1 mb - 0.00 in0.0 mm 0.00 in0.0 mm
07:00 AM 31.8°F-0.1°C 30.8°F-0.7°C 96% Calm Calm -- 29.77 in1008.1 mb - 0.00 in0.0 mm 0.00 in0.0 mm
07:10 AM 32.0°F0.0°C 31.0°F-0.6°C 96% Calm Calm -- 29.77 in1008.1 mb - 0.00 in0.0 mm 0.00 in0.0 mm
07:20 AM 31.7°F-0.2°C 30.7°F-0.7°C 96% Calm Calm -- 29.77 in1008.1 mb - 0.00 in0.0 mm 0.00 in0.0 mm
07:30 AM 32.0°F0.0°C 31.0°F-0.6°C 96% Calm Calm -- 29.76 in1007.8 mb - 0.00 in0.0 mm 0.00 in0.0 mm
07:40 AM 31.7°F-0.2°C 30.7°F-0.7°C 96% Calm Calm -- 29.76 in1007.8 mb - 0.00 in0.0 mm 0.00 in0.0 mm
07:50 AM 32.3°F0.2°C 31.3°F-0.4°C 96% Calm Calm -- 29.77 in1008.1 mb - 0.00 in0.0 mm 0.00 in0.0 mm
08:00 AM 32.7°F0.4°C 31.7°F-0.2°C 96% Calm Calm -- 29.76 in1007.8 mb - 0.00 in0.0 mm 0.00 in0.0 mm
08:10 AM 32.8°F0.4°C 31.8°F-0.1°C 96% Calm Calm -- 29.77 in1008.1 mb - 0.00 in0.0 mm 0.00 in0.0 mm
08:20 AM 32.7°F0.4°C 31.7°F-0.2°C 96% Calm Calm -- 29.77 in1008.1 mb - 0.00 in0.0 mm 0.00 in0.0 mm
08:30 AM 32.6°F0.3°C 31.6°F-0.2°C 96% Calm Calm -- 29.77 in1008.1 mb - 0.00 in0.0 mm 0.00 in0.0 mm
08:40 AM 32.6°F0.3°C 31.6°F-0.2°C 96% Calm Calm -- 29.76 in1007.8 mb - 0.00 in0.0 mm 0.00 in0.0 mm
08:50 AM 32.8°F0.4°C 31.8°F-0.1°C 96% Calm Calm -- 29.76 in1007.8 mb - 0.00 in0.0 mm 0.00 in0.0 mm
09:00 AM 32.8°F0.4°C 31.8°F-0.1°C 96% Calm Calm -- 29.77 in1008.1 mb - 0.00 in0.0 mm 0.00 in0.0 mm
09:10 AM 32.9°F0.5°C 31.9°F-0.1°C 96% Calm Calm -- 29.76 in1007.8 mb - 0.00 in0.0 mm 0.00 in0.0 mm
09:20 AM 33.1°F0.6°C 32.1°F0.1°C 96% Calm Calm -- 29.75 in1007.5 mb - 0.00 in0.0 mm 0.00 in0.0 mm
09:30 AM 33.4°F0.8°C 32.4°F0.2°C 96% Calm Calm -- 29.75 in1007.5 mb - 0.00 in0.0 mm 0.00 in0.0 mm
09:40 AM 33.5°F0.8°C 32.5°F0.3°C 96% Calm Calm -- 29.75 in1007.5 mb - 0.00 in0.0 mm 0.00 in0.0 mm
09:50 AM 33.7°F0.9°C 32.7°F0.4°C 96% Calm Calm -- 29.74 in1007.1 mb - 0.00 in0.0 mm 0.00 in0.0 mm
10:00 AM 34.1°F1.2°C 33.1°F0.6°C 96% Calm Calm -- 29.74 in1007.1 mb - 0.00 in0.0 mm 0.00 in0.0 mm
10:10 AM 34.6°F1.4°C 33.8°F1.0°C 97% Calm Calm -- 29.74 in1007.1 mb - 0.00 in0.0 mm 0.00 in0.0 mm
10:20 AM 35.0°F1.7°C 34.3°F1.3°C 97% Calm Calm -- 29.75 in1007.5 mb - 0.00 in0.0 mm 0.00 in0.0 mm
10:30 AM 35.6°F2.0°C 34.8°F1.6°C 97% Calm Calm 1.2 mph1.9 kmh 29.74 in1007.1 mb - 0.00 in0.0 mm 0.00 in0.0 mm
10:40 AM 36.3°F2.4°C 35.6°F2.0°C 97% Calm Calm -- 29.75 in1007.5 mb - 0.00 in0.0 mm 0.00 in0.0 mm
10:50 AM 36.0°F2.2°C 35.0°F1.7°C 96% Calm Calm -- 29.74 in1007.1 mb - 0.00 in0.0 mm 0.00 in0.0 mm
11:00 AM 36.2°F2.3°C 35.2°F1.8°C 96% Calm Calm -- 29.74 in1007.1 mb - 0.00 in0.0 mm 0.00 in0.0 mm
11:10 AM 36.7°F2.6°C 35.7°F2.1°C 96% Calm Calm -- 29.75 in1007.5 mb - 0.00 in0.0 mm 0.00 in0.0 mm
11:20 AM 38.2°F3.4°C 37.1°F2.8°C 96% 1.2 mph W1.9 kmh W 4.6 mph7.4 kmh 29.74 in1007.1 mb - 0.00 in0.0 mm 0.00 in0.0 mm
11:30 AM 39.9°F4.4°C 38.9°F3.8°C 96% 2.3 mph W3.7 kmh W 4.6 mph7.4 kmh 29.73 in1006.8 mb - 0.00 in0.0 mm 0.00 in0.0 mm
11:40 AM 40.7°F4.8°C 39.6°F4.2°C 96% 3.5 mph WSW5.6 kmh WSW 8.1 mph13.0 kmh 29.73 in1006.8 mb - 0.00 in0.0 mm 0.00 in0.0 mm
11:50 AM 41.4°F5.2°C 39.8°F4.3°C 94% 1.2 mph WSW1.9 kmh WSW 5.8 mph9.3 kmh 29.73 in1006.8 mb - 0.00 in0.0 mm 0.00 in0.0 mm
12:00 PM 41.9°F5.5°C 40.0°F4.4°C 93% 3.5 mph NNE5.6 kmh NNE 8.1 mph13.0 kmh 29.72 in1006.4 mb - 0.00 in0.0 mm 0.00 in0.0 mm
12:10 PM 42.4°F5.8°C 40.5°F4.7°C 93% 3.5 mph SW5.6 kmh SW 5.8 mph9.3 kmh 29.71 in1006.1 mb - 0.00 in0.0 mm 0.00 in0.0 mm
12:20 PM 42.9°F6.1°C 41.0°F5.0°C 93% 2.3 mph WSW3.7 kmh WSW 4.6 mph7.4 kmh 29.71 in1006.1 mb - 0.00 in0.0 mm 0.00 in0.0 mm
12:30 PM 43.3°F6.3°C 41.4°F5.2°C 93% 3.5 mph W5.6 kmh W 5.8 mph9.3 kmh 29.70 in1005.8 mb - 0.00 in0.0 mm 0.00 in0.0 mm
12:40 PM 43.6°F6.4°C 41.7°F5.4°C 93% 4.6 mph WSW7.4 kmh WSW 9.2 mph14.8 kmh 29.70 in1005.8 mb - 0.00 in0.0 mm 0.00 in0.0 mm
12:50 PM 43.8°F6.6°C 41.9°F5.5°C 93% 5.8 mph SW9.3 kmh SW 8.1 mph13.0 kmh 29.69 in1005.4 mb - 0.00 in0.0 mm 0.00 in0.0 mm
01:00 PM 44.2°F6.8°C 42.3°F5.7°C 93% 5.8 mph WSW9.3 kmh WSW 10.4 mph16.7 kmh 29.69 in1005.4 mb - 0.00 in0.0 mm 0.00 in0.0 mm
01:10 PM 44.6°F7.0°C 42.4°F5.8°C 92% 5.8 mph SW9.3 kmh SW 12.7 mph20.4 kmh 29.68 in1005.1 mb - 0.00 in0.0 mm 0.00 in0.0 mm
01:20 PM 44.9°F7.2°C 42.4°F5.8°C 91% 8.1 mph WSW13.0 kmh WSW 12.7 mph20.4 kmh 29.68 in1005.1 mb - 0.00 in0.0 mm 0.00 in0.0 mm
01:30 PM 45.1°F7.3°C 42.3°F5.7°C 90% 9.2 mph W14.8 kmh W 16.1 mph25.9 kmh 29.68 in1005.1 mb - 0.00 in0.0 mm 0.00 in0.0 mm
01:40 PM 45.0°F7.2°C 42.5°F5.8°C 91% 8.1 mph SW13.0 kmh SW 16.1 mph25.9 kmh 29.67 in1004.7 mb - 0.00 in0.0 mm 0.00 in0.0 mm
01:50 PM 44.9°F7.2°C 42.7°F5.9°C 92% 9.2 mph SW14.8 kmh SW 15.0 mph24.1 kmh 29.66 in1004.4 mb - 0.00 in0.0 mm 0.00 in0.0 mm
02:00 PM 44.8°F7.1°C 42.9°F6.1°C 93% 8.1 mph WSW13.0 kmh WSW 16.1 mph25.9 kmh 29.65 in1004.1 mb - 0.00 in0.0 mm 0.00 in0.0 mm
02:10 PM 45.0°F7.2°C 42.8°F6.0°C 92% 9.2 mph SW14.8 kmh SW 13.8 mph22.2 kmh 29.64 in1003.7 mb - 0.00 in0.0 mm 0.00 in0.0 mm
02:20 PM 44.9°F7.2°C 43.0°F6.1°C 93% 9.2 mph WSW14.8 kmh WSW 16.1 mph25.9 kmh 29.62 in1003.0 mb - 0.01 in0.3 mm 0.01 in0.3 mm
02:30 PM 45.0°F7.2°C 43.1°F6.2°C 93% 10.4 mph SW16.7 kmh SW 18.4 mph29.6 kmh 29.61 in1002.7 mb - 0.00 in0.0 mm 0.01 in0.3 mm
02:40 PM 44.8°F7.1°C 43.5°F6.4°C 95% 11.5 mph WSW18.5 kmh WSW 19.6 mph31.5 kmh 29.59 in1002.0 mb - 0.00 in0.0 mm 0.01 in0.3 mm
02:50 PM 44.8°F7.1°C 43.5°F6.4°C 95% 8.1 mph W13.0 kmh W 16.1 mph25.9 kmh 29.60 in1002.4 mb - 0.00 in0.0 mm 0.01 in0.3 mm
03:00 PM 44.8°F7.1°C 43.7°F6.5°C 96% 6.9 mph WSW11.1 kmh WSW 11.5 mph18.5 kmh 29.61 in1002.7 mb - 0.00 in0.0 mm 0.01 in0.3 mm
03:10 PM 44.9°F7.2°C 43.8°F6.6°C 96% 8.1 mph SW13.0 kmh SW 13.8 mph22.2 kmh 29.61 in1002.7 mb - 0.00 in0.0 mm 0.01 in0.3 mm
03:20 PM 44.9°F7.2°C 43.8°F6.6°C 96% 8.1 mph SW13.0 kmh SW 15.0 mph24.1 kmh 29.62 in1003.0 mb - 0.00 in0.0 mm 0.01 in0.3 mm
03:30 PM 45.1°F7.3°C 44.0°F6.7°C 96% 5.8 mph WSW9.3 kmh WSW 9.2 mph14.8 kmh 29.61 in1002.7 mb - 0.01 in0.3 mm 0.02 in0.5 mm
03:40 PM 45.4°F7.4°C 44.3°F6.8°C 96% 9.2 mph SW14.8 kmh SW 19.6 mph31.5 kmh 29.61 in1002.7 mb - 0.01 in0.3 mm 0.03 in0.8 mm
03:50 PM 45.7°F7.6°C 44.6°F7.0°C 96% 9.2 mph SW14.8 kmh SW 16.1 mph25.9 kmh 29.61 in1002.7 mb - 0.00 in0.0 mm 0.03 in0.8 mm
04:00 PM 45.9°F7.7°C 45.1°F7.3°C 97% 10.4 mph WSW16.7 kmh WSW 19.6 mph31.5 kmh 29.61 in1002.7 mb - 0.01 in0.3 mm 0.04 in1.0 mm
04:10 PM 46.1°F7.8°C 45.3°F7.4°C 97% 9.2 mph W14.8 kmh W 20.7 mph33.3 kmh 29.61 in1002.7 mb - 0.00 in0.0 mm 0.04 in1.0 mm
04:20 PM 46.3°F7.9°C 45.5°F7.5°C 97% 9.2 mph WNW14.8 kmh WNW 18.4 mph29.6 kmh 29.60 in1002.4 mb - 0.01 in0.3 mm 0.05 in1.3 mm
04:30 PM 46.4°F8.0°C 45.6°F7.6°C 97% 9.2 mph W14.8 kmh W 15.0 mph24.1 kmh 29.60 in1002.4 mb - 0.00 in0.0 mm 0.05 in1.3 mm
04:40 PM 46.5°F8.1°C 45.7°F7.6°C 97% 8.1 mph W13.0 kmh W 18.4 mph29.6 kmh 29.60 in1002.4 mb - 0.00 in0.0 mm 0.05 in1.3 mm
04:50 PM 46.7°F8.2°C 45.9°F7.7°C 97% 9.2 mph WSW14.8 kmh WSW 13.8 mph22.2 kmh 29.60 in1002.4 mb - 0.00 in0.0 mm 0.05 in1.3 mm
05:00 PM 46.9°F8.3°C 46.1°F7.8°C 97% 6.9 mph WNW11.1 kmh WNW 12.7 mph20.4 kmh 29.60 in1002.4 mb - 0.01 in0.3 mm 0.06 in1.5 mm
05:10 PM 46.9°F8.3°C 45.8°F7.7°C 96% 10.4 mph WSW16.7 kmh WSW 19.6 mph31.5 kmh 29.61 in1002.7 mb - 0.03 in0.8 mm 0.09 in2.3 mm
05:20 PM 46.8°F8.2°C 45.7°F7.6°C 96% 6.9 mph W11.1 kmh W 12.7 mph20.4 kmh 29.61 in1002.7 mb - 0.01 in0.3 mm 0.09 in2.3 mm
05:30 PM 46.6°F8.1°C 45.8°F7.7°C 97% 6.9 mph W11.1 kmh W 8.1 mph13.0 kmh 29.62 in1003.0 mb - 0.00 in0.0 mm 0.09 in2.3 mm
05:40 PM 46.3°F7.9°C 45.5°F7.5°C 97% 5.8 mph WNW9.3 kmh WNW 9.2 mph14.8 kmh 29.61 in1002.7 mb - 0.00 in0.0 mm 0.09 in2.3 mm
05:50 PM 46.0°F7.8°C 45.2°F7.3°C 97% 2.3 mph W3.7 kmh W 5.8 mph9.3 kmh 29.61 in1002.7 mb - 0.00 in0.0 mm 0.09 in2.3 mm
06:00 PM 45.6°F7.6°C 44.8°F7.1°C 97% 1.2 mph W1.9 kmh W 2.3 mph3.7 kmh 29.61 in1002.7 mb - 0.00 in0.0 mm 0.09 in2.3 mm
06:10 PM 45.3°F7.4°C 44.5°F6.9°C 97% 1.2 mph WNW1.9 kmh WNW 4.6 mph7.4 kmh 29.61 in1002.7 mb - 0.00 in0.0 mm 0.09 in2.3 mm
06:20 PM 44.8°F7.1°C 44.0°F6.7°C 97% 2.3 mph W3.7 kmh W 2.3 mph3.7 kmh 29.61 in1002.7 mb - 0.00 in0.0 mm 0.09 in2.3 mm
06:30 PM 44.6°F7.0°C 43.8°F6.6°C 97% 1.2 mph WNW1.9 kmh WNW 2.3 mph3.7 kmh 29.61 in1002.7 mb - 0.00 in0.0 mm 0.09 in2.3 mm
06:40 PM 44.7°F7.1°C 43.9°F6.6°C 97% 3.5 mph NW5.6 kmh NW 8.1 mph13.0 kmh 29.61 in1002.7 mb - 0.00 in0.0 mm 0.09 in2.3 mm
06:50 PM 44.8°F7.1°C 44.0°F6.7°C 97% 4.6 mph NW7.4 kmh NW 10.4 mph16.7 kmh 29.61 in1002.7 mb - 0.00 in0.0 mm 0.09 in2.3 mm
07:00 PM 44.9°F7.2°C 44.1°F6.7°C 97% 5.8 mph NW9.3 kmh NW 11.5 mph18.5 kmh 29.61 in1002.7 mb - 0.00 in0.0 mm 0.09 in2.3 mm
07:10 PM 45.1°F7.3°C 44.3°F6.8°C 97% 3.5 mph WNW5.6 kmh WNW 6.9 mph11.1 kmh 29.62 in1003.0 mb - 0.00 in0.0 mm 0.09 in2.3 mm
07:20 PM 45.1°F7.3°C 44.3°F6.8°C 97% Calm Calm 1.2 mph1.9 kmh 29.62 in1003.0 mb - 0.00 in0.0 mm 0.09 in2.3 mm
07:30 PM 45.0°F7.2°C 44.2°F6.8°C 97% 2.3 mph W3.7 kmh W 4.6 mph7.4 kmh 29.63 in1003.4 mb - 0.00 in0.0 mm 0.09 in2.3 mm
07:40 PM 44.9°F7.2°C 43.8°F6.6°C 96% 2.3 mph W3.7 kmh W 6.9 mph11.1 kmh 29.63 in1003.4 mb - 0.00 in0.0 mm 0.09 in2.3 mm
07:50 PM 45.1°F7.3°C 43.8°F6.6°C 95% 3.5 mph WNW5.6 kmh WNW 6.9 mph11.1 kmh 29.63 in1003.4 mb - 0.00 in0.0 mm 0.09 in2.3 mm
08:00 PM 45.3°F7.4°C 43.7°F6.5°C 94% 4.6 mph W7.4 kmh W 5.8 mph9.3 kmh 29.63 in1003.4 mb - 0.00 in0.0 mm 0.09 in2.3 mm
08:10 PM 45.2°F7.3°C 43.2°F6.2°C 93% 2.3 mph WNW3.7 kmh WNW 4.6 mph7.4 kmh 29.63 in1003.4 mb - 0.00 in0.0 mm 0.09 in2.3 mm
08:20 PM 44.7°F7.1°C 42.8°F6.0°C 93% 2.3 mph W3.7 kmh W 5.8 mph9.3 kmh 29.64 in1003.7 mb - 0.00 in0.0 mm 0.09 in2.3 mm
08:30 PM 44.9°F7.2°C 43.0°F6.1°C 93% 3.5 mph W5.6 kmh W 5.8 mph9.3 kmh 29.63 in1003.4 mb - 0.00 in0.0 mm 0.09 in2.3 mm
08:40 PM 45.1°F7.3°C 43.2°F6.2°C 93% 4.6 mph W7.4 kmh W 6.9 mph11.1 kmh 29.62 in1003.0 mb - 0.00 in0.0 mm 0.09 in2.3 mm
08:50 PM 45.9°F7.7°C 43.4°F6.3°C 91% 9.2 mph NW14.8 kmh NW 13.8 mph22.2 kmh 29.62 in1003.0 mb - 0.00 in0.0 mm 0.09 in2.3 mm
09:00 PM 46.3°F7.9°C 43.5°F6.4°C 90% 5.8 mph NW9.3 kmh NW 8.1 mph13.0 kmh 29.62 in1003.0 mb - 0.00 in0.0 mm 0.09 in2.3 mm
09:10 PM 46.4°F8.0°C 43.6°F6.4°C 90% 1.2 mph WSW1.9 kmh WSW 2.3 mph3.7 kmh 29.63 in1003.4 mb - 0.00 in0.0 mm 0.09 in2.3 mm
09:20 PM 46.1°F7.8°C 43.3°F6.3°C 90% Calm Calm -- 29.64 in1003.7 mb - 0.00 in0.0 mm 0.09 in2.3 mm
09:30 PM 46.0°F7.8°C 43.2°F6.2°C 90% 2.3 mph WNW3.7 kmh WNW 5.8 mph9.3 kmh 29.64 in1003.7 mb - 0.00 in0.0 mm 0.09 in2.3 mm
09:40 PM 46.1°F7.8°C 43.3°F6.3°C 90% 2.3 mph W3.7 kmh W 5.8 mph9.3 kmh 29.64 in1003.7 mb - 0.00 in0.0 mm 0.09 in2.3 mm
09:50 PM 45.9°F7.7°C 43.1°F6.2°C 90% 2.3 mph WSW3.7 kmh WSW 4.6 mph7.4 kmh 29.65 in1004.1 mb - 0.00 in0.0 mm 0.09 in2.3 mm
10:00 PM 45.3°F7.4°C 42.8°F6.0°C 91% 2.3 mph W3.7 kmh W 5.8 mph9.3 kmh 29.65 in1004.1 mb - 0.00 in0.0 mm 0.09 in2.3 mm
10:10 PM 45.1°F7.3°C 42.9°F6.1°C 92% 2.3 mph WNW3.7 kmh WNW 4.6 mph7.4 kmh 29.65 in1004.1 mb - 0.00 in0.0 mm 0.09 in2.3 mm
10:20 PM 44.9°F7.2°C 42.7°F5.9°C 92% 2.3 mph W3.7 kmh W 4.6 mph7.4 kmh 29.64 in1003.7 mb - 0.00 in0.0 mm 0.09 in2.3 mm
10:30 PM 45.5°F7.5°C 43.0°F6.1°C 91% 2.3 mph W3.7 kmh W 8.1 mph13.0 kmh 29.64 in1003.7 mb - 0.00 in0.0 mm 0.09 in2.3 mm
10:40 PM 45.9°F7.7°C 43.1°F6.2°C 90% 2.3 mph W3.7 kmh W 5.8 mph9.3 kmh 29.65 in1004.1 mb - 0.00 in0.0 mm 0.09 in2.3 mm
10:50 PM 45.6°F7.6°C 42.8°F6.0°C 90% 4.6 mph W7.4 kmh W 6.9 mph11.1 kmh 29.65 in1004.1 mb - 0.00 in0.0 mm 0.09 in2.3 mm
11:00 PM 45.5°F7.5°C 43.0°F6.1°C 91% 2.3 mph W3.7 kmh W 2.3 mph3.7 kmh 29.66 in1004.4 mb - 0.00 in0.0 mm 0.09 in2.3 mm
11:10 PM 45.4°F7.4°C 42.9°F6.1°C 91% 3.5 mph W5.6 kmh W 5.8 mph9.3 kmh 29.65 in1004.1 mb - 0.00 in0.0 mm 0.09 in2.3 mm
11:20 PM 45.7°F7.6°C 42.9°F6.1°C 90% 2.3 mph W3.7 kmh W 6.9 mph11.1 kmh 29.64 in1003.7 mb - 0.00 in0.0 mm 0.09 in2.3 mm
11:30 PM 45.7°F7.6°C 43.0°F6.1°C 90% 2.3 mph W3.7 kmh W 5.8 mph9.3 kmh 29.64 in1003.7 mb - 0.00 in0.0 mm 0.09 in2.3 mm
11:40 PM 45.6°F7.6°C 42.8°F6.0°C 90% 1.2 mph WSW1.9 kmh WSW 2.3 mph3.7 kmh 29.64 in1003.7 mb - 0.00 in0.0 mm 0.09 in2.3 mm
11:50 PM 45.6°F7.6°C 42.8°F6.0°C 90% 2.3 mph WSW3.7 kmh WSW 5.8 mph9.3 kmh 29.64 in1003.7 mb - 0.00 in0.0 mm 0.09 in2.3 mm